ZKDAY RP17-RPMO

Flight info

Callsign ZKDAY
Flight time 1h 45m
Altitude 14000
Route RP17 / RPMO
Aircraft C172/L-DOV/C

Departure

Time 2026-04-25 11:11
Airport Malita Airport (RP17)

Arrival

Time 2026-04-25 12:56
Airport Labo Airport (RPMO)
Time Latitude Longitude Altitude Speed Heading
2026-04-25 10:56 6.40107 125.61870 18 ft 0 kts 355°
2026-04-25 10:58 6.40111 125.61869 18 ft 1 kts 346°
2026-04-25 10:59 6.40119 125.61863 18 ft 3 kts 299°
2026-04-25 10:59 6.40115 125.61855 15 ft 3 kts 201°
2026-04-25 10:59 6.40090 125.61877 18 ft 7 kts 107°
2026-04-25 10:59 6.40088 125.61890 19 ft 0 kts 76°
2026-04-25 11:06 6.40091 125.61910 18 ft 9 kts 81°
2026-04-25 11:06 6.40078 125.61955 18 ft 8 kts 158°
2026-04-25 11:06 6.39998 125.61969 16 ft 15 kts 169°
2026-04-25 11:07 6.39879 125.61991 14 ft 19 kts 173°
2026-04-25 11:07 6.39758 125.62013 15 ft 9 kts 162°
2026-04-25 11:07 6.39705 125.62035 15 ft 8 kts 172°
2026-04-25 11:07 6.39737 125.62013 15 ft 11 kts 354°
2026-04-25 11:08 6.39835 125.61997 14 ft 17 kts 340°
2026-04-25 11:08 6.39963 125.61978 16 ft 20 kts 351°
2026-04-25 11:08 6.40106 125.61955 19 ft 22 kts 353°
2026-04-25 11:08 6.40258 125.61927 22 ft 23 kts 352°
2026-04-25 11:09 6.40402 125.61898 25 ft 19 kts 350°
2026-04-25 11:09 6.40536 125.61885 26 ft 21 kts 352°
2026-04-25 11:09 6.40689 125.61856 24 ft 23 kts 354°
2026-04-25 11:09 6.40749 125.61848 24 ft 1 kts 282°
2026-04-25 11:10 6.40731 125.61848 24 ft 5 kts 146°
2026-04-25 11:10 6.40719 125.61851 24 ft 0 kts 179°
2026-04-25 11:10 6.40614 125.61869 25 ft 40 kts 173°
2026-04-25 11:10 6.40158 125.61935 106 ft 80 kts 171°
2026-04-25 11:11 6.39597 125.62005 373 ft 82 kts 169°
2026-04-25 11:11 6.39038 125.62253 560 ft 93 kts 141°
2026-04-25 11:11 6.38638 125.62774 757 ft 98 kts 108°
2026-04-25 11:11 6.38769 125.63414 918 ft 95 kts 60°
2026-04-25 11:12 6.39333 125.63792 971 ft 101 kts 22°
2026-04-25 11:12 6.40004 125.63718 1039 ft 101 kts 336°
2026-04-25 11:12 6.40603 125.63319 1042 ft 109 kts 325°
2026-04-25 11:12 6.41204 125.62883 1099 ft 106 kts 330°
2026-04-25 11:13 6.41805 125.62465 1147 ft 108 kts 322°
2026-04-25 11:13 6.42283 125.61881 1201 ft 105 kts 306°
2026-04-25 11:13 6.42784 125.61367 1206 ft 105 kts 328°
2026-04-25 11:13 6.43415 125.61014 1176 ft 106 kts 337°
2026-04-25 11:14 6.44075 125.60729 1252 ft 103 kts 340°
2026-04-25 11:14 6.44716 125.60379 1389 ft 107 kts 337°
2026-04-25 11:14 6.45385 125.60048 1610 ft 104 kts 337°
2026-04-25 11:14 6.45938 125.59671 1917 ft 95 kts 326°
2026-04-25 11:15 6.46485 125.59286 2128 ft 95 kts 325°
2026-04-25 11:15 6.46916 125.58770 2282 ft 99 kts 312°
2026-04-25 11:15 6.47429 125.58337 2538 ft 91 kts 330°
2026-04-25 11:15 6.47946 125.57921 2723 ft 94 kts 334°
2026-04-25 11:16 6.49347 125.57200 2689 ft 120 kts 341°
2026-04-25 11:16 6.50101 125.56816 2763 ft 121 kts 337°
2026-04-25 11:16 6.50871 125.56524 2786 ft 119 kts 357°
2026-04-25 11:17 6.51696 125.56407 2844 ft 116 kts 345°
2026-04-25 11:17 6.52446 125.56120 2868 ft 120 kts 346°
2026-04-25 11:17 6.53273 125.55985 2970 ft 119 kts 355°
2026-04-25 11:17 6.54027 125.55713 3061 ft 115 kts 338°
2026-04-25 11:18 6.54750 125.55357 3083 ft 118 kts 338°
2026-04-25 11:18 6.55448 125.54959 3213 ft 110 kts 334°
2026-04-25 11:18 6.56061 125.54553 3387 ft 105 kts 328°
2026-04-25 11:18 6.56563 125.54003 3476 ft 110 kts 309°
2026-04-25 11:19 6.56959 125.53359 3567 ft 111 kts 309°
2026-04-25 11:19 6.57398 125.52690 3553 ft 119 kts 309°
2026-04-25 11:19 6.57882 125.52047 3636 ft 113 kts 314°
2026-04-25 11:19 6.58371 125.51426 3702 ft 112 kts 314°
2026-04-25 11:20 6.58878 125.50843 3807 ft 111 kts 316°
2026-04-25 11:20 6.59333 125.50216 3865 ft 110 kts 310°
2026-04-25 11:20 6.59785 125.49567 3849 ft 114 kts 314°
2026-04-25 11:20 6.60250 125.48935 3922 ft 110 kts 317°
2026-04-25 11:21 6.60740 125.48357 3986 ft 108 kts 322°
2026-04-25 11:21 6.61254 125.47832 4071 ft 106 kts 324°
2026-04-25 11:21 6.61752 125.47303 4140 ft 106 kts 322°
2026-04-25 11:21 6.62234 125.46744 4213 ft 106 kts 320°
2026-04-25 11:22 6.62706 125.46154 4223 ft 110 kts 317°
2026-04-25 11:22 6.63025 125.45753 4223 ft 112 kts 317°
2026-04-25 11:22 6.63514 125.44817 4278 ft 117 kts 302°
2026-04-25 11:22 6.63736 125.44032 4319 ft 119 kts 291°
2026-04-25 11:23 6.63844 125.43206 4376 ft 119 kts 282°
2026-04-25 11:23 6.63788 125.42381 4470 ft 117 kts 272°
2026-04-25 11:23 6.63868 125.41601 4449 ft 114 kts 302°
2026-04-25 11:23 6.64073 125.40838 4541 ft 113 kts 285°
2026-04-25 11:24 6.64119 125.40028 4546 ft 119 kts 281°
2026-04-25 11:24 6.64086 125.39197 4599 ft 119 kts 272°
2026-04-25 11:24 6.64003 125.38366 4657 ft 120 kts 274°
2026-04-25 11:24 6.63937 125.37540 4748 ft 115 kts 272°
2026-04-25 11:25 6.63836 125.36722 4777 ft 120 kts 270°
2026-04-25 11:25 6.63725 125.35882 4783 ft 122 kts 271°
2026-04-25 11:25 6.63644 125.35057 4874 ft 118 kts 270°
2026-04-25 11:25 6.63483 125.34227 4974 ft 122 kts 266°
2026-04-25 11:26 6.63333 125.33366 4988 ft 127 kts 269°
2026-04-25 11:26 6.63250 125.32521 4903 ft 119 kts 274°
2026-04-25 11:26 6.63188 125.31723 4900 ft 108 kts 274°
2026-04-25 11:26 6.63135 125.30972 4883 ft 106 kts 275°
2026-04-25 11:27 6.63061 125.30244 4870 ft 104 kts 265°
2026-04-25 11:27 6.62861 125.29526 4812 ft 107 kts 266°
2026-04-25 11:27 6.62756 125.28792 4807 ft 104 kts 275°
2026-04-25 11:27 6.62729 125.28319 4790 ft 105 kts 277°
2026-04-25 11:28 6.62678 125.27361 4838 ft 101 kts 277°
2026-04-25 11:28 6.62685 125.26652 4849 ft 101 kts 283°
2026-04-25 11:28 6.62720 125.25945 4888 ft 102 kts 288°
2026-04-25 11:28 6.62785 125.25244 4944 ft 101 kts 281°
2026-04-25 11:29 6.62777 125.24525 4967 ft 105 kts 277°
2026-04-25 11:29 6.62803 125.23789 4991 ft 102 kts 281°
2026-04-25 11:29 6.62851 125.23072 4976 ft 104 kts 284°
2026-04-25 11:29 6.62827 125.22345 4980 ft 108 kts 269°
2026-04-25 11:30 6.62781 125.21607 5007 ft 104 kts 275°
2026-04-25 11:30 6.62797 125.20882 4990 ft 103 kts 277°
2026-04-25 11:30 6.62776 125.20152 4952 ft 107 kts 275°
2026-04-25 11:30 6.62748 125.19373 4950 ft 115 kts 277°
2026-04-25 11:31 6.62765 125.18560 4982 ft 121 kts 277°
2026-04-25 11:31 6.62796 125.17703 4960 ft 122 kts 279°
2026-04-25 11:31 6.62866 125.16854 4936 ft 122 kts 282°
2026-04-25 11:31 6.62940 125.16019 5003 ft 118 kts 283°
2026-04-25 11:32 6.63020 125.15220 5089 ft 119 kts 284°
2026-04-25 11:32 6.63102 125.14364 5090 ft 126 kts 282°
2026-04-25 11:32 6.63219 125.13509 5186 ft 121 kts 289°
2026-04-25 11:32 6.63405 125.12661 5148 ft 131 kts 289°
2026-04-25 11:33 6.63623 125.11759 5128 ft 132 kts 289°
2026-04-25 11:33 6.63842 125.10840 4997 ft 135 kts 289°
2026-04-25 11:33 6.64019 125.09943 4972 ft 129 kts 287°
2026-04-25 11:33 6.64159 125.09060 4902 ft 126 kts 286°
2026-04-25 11:34 6.64265 125.08250 5053 ft 116 kts 279°
2026-04-25 11:34 6.64359 125.07441 5055 ft 119 kts 298°
2026-04-25 11:34 6.64676 125.06672 5077 ft 115 kts 300°
2026-04-25 11:34 6.64986 125.05876 4938 ft 134 kts 301°
2026-04-25 11:35 6.65283 125.05036 5054 ft 123 kts 294°
2026-04-25 11:35 6.65533 125.04235 5034 ft 121 kts 296°
2026-04-25 11:35 6.65792 125.03401 5016 ft 125 kts 292°
2026-04-25 11:35 6.66028 125.02572 4987 ft 122 kts 296°
2026-04-25 11:36 6.66324 125.01792 4963 ft 117 kts 302°
2026-04-25 11:36 6.66657 125.01067 5027 ft 111 kts 302°
2026-04-25 11:36 6.66951 125.00319 5005 ft 118 kts 295°
2026-04-25 11:36 6.67202 124.99527 4987 ft 120 kts 296°
2026-04-25 11:37 6.67514 124.98755 4959 ft 117 kts 303°
2026-04-25 11:37 6.67979 124.98130 5011 ft 107 kts 319°
2026-04-25 11:37 6.68516 124.97589 5002 ft 108 kts 316°
2026-04-25 11:37 6.68978 124.97026 5016 ft 105 kts 316°
2026-04-25 11:38 6.69431 124.96454 5028 ft 105 kts 312°
2026-04-25 11:38 6.69809 124.95834 5079 ft 101 kts 305°
2026-04-25 11:38 6.70178 124.95203 5070 ft 108 kts 306°
2026-04-25 11:38 6.70563 124.94550 5097 ft 107 kts 306°
2026-04-25 11:39 6.70944 124.93866 5036 ft 110 kts 302°
2026-04-25 11:39 6.71357 124.93214 4921 ft 114 kts 317°
2026-04-25 11:39 6.71900 124.92640 4843 ft 111 kts 320°
2026-04-25 11:39 6.72426 124.92128 4878 ft 103 kts 322°
2026-04-25 11:40 6.72959 124.91632 4854 ft 102 kts 322°
2026-04-25 11:40 6.73487 124.91166 4906 ft 100 kts 324°
2026-04-25 11:40 6.74015 124.90695 4923 ft 103 kts 320°
2026-04-25 11:40 6.74543 124.90207 4945 ft 104 kts 322°
2026-04-25 11:41 6.75089 124.89724 4990 ft 103 kts 322°
2026-04-25 11:41 6.75655 124.89299 5062 ft 100 kts 331°
2026-04-25 11:41 6.76237 124.88955 5080 ft 98 kts 334°
2026-04-25 11:41 6.76830 124.88596 5052 ft 101 kts 332°
2026-04-25 11:42 6.77455 124.88231 5016 ft 106 kts 333°
2026-04-25 11:42 6.78075 124.87830 4999 ft 108 kts 328°
2026-04-25 11:42 6.78667 124.87355 4988 ft 107 kts 326°
2026-04-25 11:42 6.79227 124.86847 4942 ft 110 kts 321°
2026-04-25 11:43 6.79752 124.86304 4991 ft 106 kts 315°
2026-04-25 11:43 6.80229 124.85739 5009 ft 107 kts 315°
2026-04-25 11:43 6.80692 124.85143 5004 ft 108 kts 311°
2026-04-25 11:43 6.81104 124.84524 5003 ft 108 kts 310°
2026-04-25 11:44 6.81551 124.83920 5061 ft 106 kts 312°
2026-04-25 11:44 6.82023 124.83364 5094 ft 105 kts 316°
2026-04-25 11:44 6.82495 124.82760 4989 ft 116 kts 310°
2026-04-25 11:44 6.82957 124.82074 4891 ft 122 kts 305°
2026-04-25 11:45 6.83388 124.81337 4785 ft 121 kts 304°
2026-04-25 11:45 6.83801 124.80617 4724 ft 119 kts 303°
2026-04-25 11:45 6.84172 124.79898 4709 ft 115 kts 305°
2026-04-25 11:45 6.84561 124.79223 4686 ft 112 kts 305°
2026-04-25 11:46 6.84946 124.78539 4637 ft 115 kts 304°
2026-04-25 11:46 6.85314 124.77818 4536 ft 118 kts 301°
2026-04-25 11:46 6.85672 124.77078 4464 ft 117 kts 300°
2026-04-25 11:46 6.86015 124.76358 4426 ft 115 kts 300°
2026-04-25 11:47 6.86355 124.75612 4329 ft 118 kts 299°
2026-04-25 11:47 6.86660 124.74854 4276 ft 118 kts 299°
2026-04-25 11:47 6.86979 124.74061 4177 ft 124 kts 296°
2026-04-25 11:47 6.87252 124.73228 4018 ft 128 kts 291°
2026-04-25 11:48 6.87479 124.72402 4058 ft 117 kts 290°
2026-04-25 11:48 6.87670 124.71605 4046 ft 117 kts 290°
2026-04-25 11:48 6.87890 124.70812 4100 ft 117 kts 291°
2026-04-25 11:48 6.88106 124.70028 4153 ft 117 kts 289°
2026-04-25 11:49 6.88309 124.69230 4139 ft 119 kts 292°
2026-04-25 11:49 6.88572 124.68465 4173 ft 115 kts 294°
2026-04-25 11:49 6.88794 124.67672 4173 ft 119 kts 289°
2026-04-25 11:49 6.88945 124.66866 4257 ft 116 kts 283°
2026-04-25 11:50 6.89113 124.66079 4254 ft 116 kts 300°
2026-04-25 11:50 6.89527 124.65403 4274 ft 111 kts 313°
2026-04-25 11:50 6.89953 124.64741 4318 ft 114 kts 308°
2026-04-25 11:50 6.90340 124.64042 4345 ft 114 kts 304°
2026-04-25 11:51 6.90817 124.63363 4184 ft 125 kts 317°
2026-04-25 11:51 6.91375 124.62725 4237 ft 119 kts 321°
2026-04-25 11:51 6.91946 124.62137 4292 ft 114 kts 320°
2026-04-25 11:51 6.92499 124.61579 4294 ft 112 kts 326°
2026-04-25 11:52 6.93106 124.61110 4298 ft 109 kts 332°
2026-04-25 11:52 6.93735 124.60691 4306 ft 110 kts 334°
2026-04-25 11:52 6.94368 124.60255 4308 ft 110 kts 335°
2026-04-25 11:52 6.95025 124.59870 4338 ft 109 kts 338°
2026-04-25 11:53 6.95674 124.59500 4380 ft 107 kts 336°
2026-04-25 11:53 6.96307 124.59085 4400 ft 109 kts 333°
2026-04-25 11:53 6.96926 124.58637 4468 ft 111 kts 330°
2026-04-25 11:53 6.97508 124.58129 4530 ft 112 kts 323°
2026-04-25 11:54 6.98065 124.57592 4545 ft 110 kts 326°
2026-04-25 11:54 6.98640 124.57073 4530 ft 111 kts 326°
2026-04-25 11:54 6.99753 124.56021 4526 ft 113 kts 313°
2026-04-25 11:55 7.00129 124.55308 4491 ft 116 kts 309°
2026-04-25 11:55 7.00626 124.54691 4492 ft 110 kts 319°
2026-04-25 11:55 7.01092 124.54065 4470 ft 115 kts 309°
2026-04-25 11:55 7.01456 124.53347 4453 ft 115 kts 299°
2026-04-25 11:56 7.01782 124.52611 4446 ft 116 kts 296°
2026-04-25 11:56 7.01866 124.51785 4385 ft 123 kts 273°
2026-04-25 11:56 7.02115 124.51019 4425 ft 115 kts 310°
2026-04-25 11:56 7.02614 124.50409 4499 ft 112 kts 320°
2026-04-25 11:57 7.03125 124.49819 4573 ft 113 kts 314°
2026-04-25 11:57 7.03619 124.49202 4616 ft 113 kts 318°
2026-04-25 11:57 7.04092 124.48576 4650 ft 113 kts 312°
2026-04-25 11:57 7.04622 124.47990 4684 ft 112 kts 322°
2026-04-25 11:58 7.05142 124.47412 4728 ft 114 kts 318°
2026-04-25 11:58 7.05636 124.46750 4684 ft 119 kts 311°
2026-04-25 11:58 7.06110 124.46112 4709 ft 116 kts 317°
2026-04-25 11:58 7.06594 124.45447 4717 ft 117 kts 310°
2026-04-25 11:59 7.06998 124.44728 4731 ft 119 kts 306°
2026-04-25 11:59 7.07361 124.43981 4718 ft 120 kts 297°
2026-04-25 11:59 7.07675 124.43193 4697 ft 121 kts 299°
2026-04-25 12:00 7.08904 124.42242 4719 ft 106 kts 344°
2026-04-25 12:00 7.09558 124.41826 4679 ft 117 kts 329°
2026-04-25 12:00 7.10515 124.40499 4635 ft 120 kts 304°
2026-04-25 12:01 7.10857 124.39727 4633 ft 124 kts 294°
2026-04-25 12:01 7.11033 124.38889 4653 ft 122 kts 287°
2026-04-25 12:01 7.11252 124.38056 4659 ft 124 kts 293°
2026-04-25 12:01 7.11507 124.37241 4746 ft 121 kts 292°
2026-04-25 12:02 7.12059 124.35647 4760 ft 119 kts 297°
2026-04-25 12:02 7.12378 124.34866 4709 ft 122 kts 298°
2026-04-25 12:02 7.12676 124.34075 4710 ft 120 kts 296°
2026-04-25 12:03 7.12982 124.33282 4696 ft 122 kts 298°
2026-04-25 12:03 7.13366 124.32552 4658 ft 120 kts 312°
2026-04-25 12:03 7.13854 124.31884 4690 ft 115 kts 316°
2026-04-25 12:03 7.14353 124.31238 4652 ft 119 kts 315°
2026-04-25 12:04 7.14815 124.30561 4676 ft 117 kts 308°
2026-04-25 12:04 7.15202 124.29824 4640 ft 120 kts 304°
2026-04-25 12:04 7.15574 124.29058 4665 ft 123 kts 296°
2026-04-25 12:04 7.15844 124.28244 4695 ft 121 kts 298°
2026-04-25 12:05 7.16208 124.27486 4699 ft 119 kts 305°
2026-04-25 12:05 7.16610 124.26751 4713 ft 119 kts 309°
2026-04-25 12:05 7.17019 124.26045 4727 ft 119 kts 303°
2026-04-25 12:05 7.17364 124.25270 4698 ft 122 kts 298°
2026-04-25 12:06 7.17689 124.24487 4743 ft 120 kts 300°
2026-04-25 12:06 7.18049 124.23726 4722 ft 122 kts 304°
2026-04-25 12:06 7.18488 124.23009 4734 ft 118 kts 313°
2026-04-25 12:06 7.18939 124.22301 4726 ft 121 kts 308°
2026-04-25 12:07 7.19421 124.21610 4756 ft 120 kts 315°
2026-04-25 12:07 7.19872 124.20942 4839 ft 112 kts 310°
2026-04-25 12:07 7.20416 124.20353 4746 ft 117 kts 328°
2026-04-25 12:07 7.21011 124.19851 4794 ft 114 kts 322°
2026-04-25 12:08 7.21517 124.19223 4816 ft 117 kts 312°
2026-04-25 12:08 7.21953 124.18527 4851 ft 117 kts 308°
2026-04-25 12:08 7.22365 124.17827 4869 ft 116 kts 307°
2026-04-25 12:08 7.22760 124.17106 4849 ft 118 kts 305°
2026-04-25 12:09 7.23155 124.16382 4824 ft 120 kts 301°
2026-04-25 12:09 7.23548 124.15618 4789 ft 122 kts 303°
2026-04-25 12:09 7.23980 124.14900 4805 ft 120 kts 308°
2026-04-25 12:09 7.24465 124.14217 4790 ft 118 kts 316°
2026-04-25 12:10 7.25064 124.13678 4772 ft 117 kts 324°
2026-04-25 12:10 7.25661 124.13123 4762 ft 117 kts 321°
2026-04-25 12:10 7.26198 124.12494 4737 ft 119 kts 311°
2026-04-25 12:10 7.26670 124.11811 4722 ft 119 kts 304°
2026-04-25 12:11 7.27131 124.11124 4696 ft 118 kts 318°
2026-04-25 12:11 7.27760 124.10606 4681 ft 115 kts 328°
2026-04-25 12:11 7.28373 124.10082 4665 ft 117 kts 321°
2026-04-25 12:11 7.28934 124.09499 4671 ft 116 kts 316°
2026-04-25 12:12 7.29449 124.08854 4633 ft 121 kts 308°
2026-04-25 12:12 7.29744 124.08382 4633 ft 120 kts 304°
2026-04-25 12:12 7.30301 124.07420 4639 ft 119 kts 301°
2026-04-25 12:12 7.30669 124.06676 4650 ft 118 kts 300°
2026-04-25 12:13 7.31010 124.05929 4616 ft 122 kts 291°
2026-04-25 12:13 7.31136 124.05085 4590 ft 122 kts 277°
2026-04-25 12:13 7.31372 124.04254 4578 ft 124 kts 296°
2026-04-25 12:13 7.31720 124.03482 4647 ft 120 kts 296°
2026-04-25 12:14 7.32037 124.02696 4640 ft 119 kts 297°
2026-04-25 12:14 7.32405 124.01950 4605 ft 120 kts 297°
2026-04-25 12:14 7.32806 124.01219 4615 ft 119 kts 306°
2026-04-25 12:14 7.33260 124.00528 4632 ft 121 kts 310°
2026-04-25 12:15 7.33845 123.99923 4659 ft 117 kts 324°
2026-04-25 12:15 7.34424 123.99366 4692 ft 118 kts 321°
2026-04-25 12:15 7.35043 123.98829 4698 ft 117 kts 328°
2026-04-25 12:15 7.35715 123.98388 4719 ft 116 kts 333°
2026-04-25 12:16 7.36365 123.97897 4739 ft 117 kts 324°
2026-04-25 12:16 7.36918 123.97286 4750 ft 118 kts 319°
2026-04-25 12:16 7.37537 123.96748 4772 ft 116 kts 327°
2026-04-25 12:16 7.38171 123.96238 4778 ft 119 kts 323°
2026-04-25 12:17 7.38739 123.95633 4799 ft 119 kts 315°
2026-04-25 12:17 7.39292 123.95031 4857 ft 113 kts 317°
2026-04-25 12:17 7.39893 123.94553 4813 ft 114 kts 344°
2026-04-25 12:17 7.40668 123.94416 4790 ft 110 kts 357°
2026-04-25 12:18 7.41401 123.94226 4828 ft 109 kts 342°
2026-04-25 12:18 7.42039 123.93782 4798 ft 115 kts 321°
2026-04-25 12:18 7.42617 123.93221 4735 ft 121 kts 322°
2026-04-25 12:18 7.43274 123.92641 4643 ft 122 kts 323°
2026-04-25 12:19 7.44167 123.91678 4659 ft 123 kts 321°
2026-04-25 12:19 7.45031 123.90865 4423 ft 132 kts 323°
2026-04-25 12:19 7.45744 123.90297 4306 ft 130 kts 327°
2026-04-25 12:20 7.46438 123.89744 4257 ft 125 kts 326°
2026-04-25 12:20 7.47106 123.89217 4237 ft 117 kts 335°
2026-04-25 12:20 7.47803 123.88841 4216 ft 116 kts 325°
2026-04-25 12:20 7.48442 123.88296 4055 ft 125 kts 323°
2026-04-25 12:21 7.49086 123.87689 3922 ft 126 kts 322°
2026-04-25 12:21 7.49717 123.87084 3836 ft 122 kts 322°
2026-04-25 12:21 7.50348 123.86505 3747 ft 122 kts 322°
2026-04-25 12:21 7.50944 123.85967 3825 ft 111 kts 324°
2026-04-25 12:22 7.51531 123.85438 3796 ft 113 kts 327°
2026-04-25 12:22 7.52133 123.84950 3827 ft 111 kts 324°
2026-04-25 12:22 7.52739 123.84448 3825 ft 111 kts 324°
2026-04-25 12:22 7.53339 123.83984 3874 ft 109 kts 326°
2026-04-25 12:23 7.53904 123.83511 3939 ft 107 kts 325°
2026-04-25 12:23 7.54490 123.83036 3972 ft 107 kts 330°
2026-04-25 12:23 7.55129 123.82661 4017 ft 107 kts 334°
2026-04-25 12:23 7.55755 123.82245 4078 ft 107 kts 330°
2026-04-25 12:24 7.56304 123.81729 4118 ft 111 kts 313°
2026-04-25 12:24 7.56776 123.81108 4173 ft 111 kts 311°
2026-04-25 12:24 7.57086 123.80705 4205 ft 110 kts 315°
2026-04-25 12:24 7.57573 123.80104 4252 ft 111 kts 314°
2026-04-25 12:25 7.58255 123.79334 4295 ft 111 kts 318°
2026-04-25 12:25 7.58631 123.78970 4313 ft 111 kts 321°
2026-04-25 12:25 7.59400 123.78291 4349 ft 111 kts 322°
2026-04-25 12:25 7.59986 123.77785 4367 ft 110 kts 327°
2026-04-25 12:26 7.60387 123.77471 4384 ft 110 kts 326°
2026-04-25 12:26 7.60992 123.76999 4396 ft 110 kts 325°
2026-04-25 12:26 7.61570 123.76493 4422 ft 110 kts 321°
2026-04-25 12:26 7.62105 123.75932 4412 ft 112 kts 313°
2026-04-25 12:27 7.62589 123.75316 4444 ft 112 kts 312°
2026-04-25 12:27 7.63089 123.74719 4449 ft 112 kts 314°
2026-04-25 12:27 7.63747 123.73922 4463 ft 111 kts 313°
2026-04-25 12:27 7.64066 123.73503 4466 ft 112 kts 310°
2026-04-25 12:28 7.64549 123.72878 4463 ft 113 kts 311°
2026-04-25 12:28 7.65042 123.72262 4477 ft 114 kts 313°
2026-04-25 12:28 7.65536 123.71657 4504 ft 112 kts 316°
2026-04-25 12:28 7.66065 123.71086 4526 ft 112 kts 315°
2026-04-25 12:29 7.66608 123.70521 4551 ft 111 kts 321°
2026-04-25 12:29 7.67185 123.70013 4568 ft 111 kts 326°
2026-04-25 12:29 7.67813 123.69558 4587 ft 111 kts 327°
2026-04-25 12:29 7.68397 123.69055 4603 ft 111 kts 324°
2026-04-25 12:30 7.69000 123.68568 4638 ft 110 kts 326°
2026-04-25 12:30 7.69595 123.68092 4670 ft 110 kts 324°
2026-04-25 12:30 7.70149 123.67572 4682 ft 110 kts 321°
2026-04-25 12:30 7.70640 123.66966 4671 ft 114 kts 312°
2026-04-25 12:31 7.71140 123.66361 4711 ft 110 kts 314°
2026-04-25 12:31 7.71606 123.65743 4700 ft 113 kts 310°
2026-04-25 12:31 7.72050 123.65089 4709 ft 112 kts 313°
2026-04-25 12:31 7.72544 123.64496 4760 ft 111 kts 315°
2026-04-25 12:32 7.72979 123.63837 4759 ft 115 kts 302°
2026-04-25 12:32 7.73458 123.63215 4773 ft 112 kts 327°
2026-04-25 12:32 7.74127 123.62844 4791 ft 108 kts 344°
2026-04-25 12:32 7.74842 123.62627 4815 ft 108 kts 348°
2026-04-25 12:33 7.75564 123.62496 4845 ft 105 kts
2026-04-25 12:33 7.76306 123.62518 4808 ft 109 kts
2026-04-25 12:33 7.77049 123.62541 4831 ft 106 kts
2026-04-25 12:33 7.77778 123.62539 4883 ft 103 kts
2026-04-25 12:34 7.78507 123.62490 4872 ft 106 kts
2026-04-25 12:34 7.79235 123.62458 4889 ft 105 kts
2026-04-25 12:34 7.79973 123.62447 4883 ft 106 kts
2026-04-25 12:34 7.80458 123.62459 4884 ft 106 kts
2026-04-25 12:35 7.81417 123.62578 4892 ft 104 kts 13°
2026-04-25 12:35 7.82147 123.62649 4893 ft 105 kts
2026-04-25 12:35 7.82881 123.62609 4898 ft 106 kts
2026-04-25 12:35 7.83603 123.62627 4920 ft 106 kts 13°
2026-04-25 12:36 7.84314 123.62792 5002 ft 103 kts 15°
2026-04-25 12:36 7.85033 123.62871 5007 ft 107 kts
2026-04-25 12:36 7.85774 123.62921 5066 ft 105 kts
2026-04-25 12:36 7.86515 123.62955 5085 ft 109 kts
2026-04-25 12:37 7.87248 123.62983 5148 ft 103 kts
2026-04-25 12:37 7.87980 123.63013 5102 ft 106 kts
2026-04-25 12:37 7.88719 123.63013 5106 ft 107 kts 15°
2026-04-25 12:37 7.89391 123.63308 5012 ft 109 kts 32°
2026-04-25 12:38 7.90100 123.63636 4806 ft 121 kts 25°
2026-04-25 12:38 7.90958 123.63926 4502 ft 134 kts 20°
2026-04-25 12:38 7.91838 123.64216 4316 ft 130 kts 19°
2026-04-25 12:38 7.92706 123.64464 4019 ft 137 kts 20°
2026-04-25 12:39 7.93602 123.64775 3775 ft 138 kts 22°
2026-04-25 12:39 7.94492 123.65111 3506 ft 135 kts 23°
2026-04-25 12:39 7.95347 123.65480 3315 ft 131 kts 25°
2026-04-25 12:39 7.96180 123.65824 3130 ft 130 kts 23°
2026-04-25 12:40 7.97002 123.66182 2973 ft 122 kts 26°
2026-04-25 12:40 7.97702 123.66596 2823 ft 121 kts 35°
2026-04-25 12:40 7.98336 123.67136 2720 ft 116 kts 43°
2026-04-25 12:40 7.98927 123.67678 2642 ft 114 kts 39°
2026-04-25 12:41 7.99556 123.68154 2569 ft 111 kts 36°
2026-04-25 12:41 8.00161 123.68620 2481 ft 110 kts 39°
2026-04-25 12:41 8.00723 123.69138 2401 ft 108 kts 43°
2026-04-25 12:41 8.01284 123.69633 2320 ft 106 kts 41°
2026-04-25 12:42 8.01831 123.70099 2263 ft 106 kts 38°
2026-04-25 12:42 8.02211 123.70407 2201 ft 107 kts 37°
2026-04-25 12:42 8.02961 123.71069 2093 ft 105 kts 45°
2026-04-25 12:42 8.03449 123.71613 2053 ft 102 kts 47°
2026-04-25 12:43 8.03854 123.72198 2017 ft 103 kts 58°
2026-04-25 12:43 8.04167 123.72862 1986 ft 105 kts 64°
2026-04-25 12:43 8.04785 123.74178 1851 ft 107 kts 61°
2026-04-25 12:44 8.05160 123.74836 1839 ft 107 kts 57°
2026-04-25 12:44 8.05493 123.75494 1842 ft 103 kts 59°
2026-04-25 12:44 8.06206 123.76610 1830 ft 95 kts 39°
2026-04-25 12:45 8.06738 123.77027 1819 ft 98 kts 34°
2026-04-25 12:45 8.07297 123.77407 1776 ft 99 kts 33°
2026-04-25 12:45 8.08429 123.78143 1737 ft 97 kts 33°
2026-04-25 12:46 8.08977 123.78496 1729 ft 93 kts 31°
2026-04-25 12:46 8.09534 123.78809 1679 ft 91 kts 28°
2026-04-25 12:46 8.10103 123.79077 1631 ft 90 kts 26°
2026-04-25 12:46 8.10668 123.79343 1602 ft 87 kts 34°
2026-04-25 12:47 8.11165 123.79697 1575 ft 87 kts 35°
2026-04-25 12:47 8.11666 123.80038 1598 ft 89 kts 34°
2026-04-25 12:47 8.12159 123.80412 1560 ft 88 kts 35°
2026-04-25 12:47 8.12671 123.80717 1466 ft 86 kts 30°
2026-04-25 12:48 8.13155 123.81032 1484 ft 83 kts 34°
2026-04-25 12:48 8.13640 123.81355 1352 ft 82 kts 32°
2026-04-25 12:48 8.14116 123.81659 1347 ft 83 kts 32°
2026-04-25 12:48 8.14566 123.81975 1334 ft 82 kts 33°
2026-04-25 12:49 8.15049 123.82304 1252 ft 85 kts 31°
2026-04-25 12:49 8.15556 123.82626 1118 ft 83 kts 30°
2026-04-25 12:49 8.16032 123.82942 909 ft 86 kts 33°
2026-04-25 12:49 8.16529 123.83260 687 ft 83 kts 33°
2026-04-25 12:50 8.17020 123.83594 412 ft 84 kts 34°
2026-04-25 12:50 8.17553 123.83929 271 ft 95 kts 32°
2026-04-25 12:50 8.18092 123.84285 281 ft 94 kts 35°
2026-04-25 12:50 8.18631 123.84630 307 ft 89 kts 36°
2026-04-25 12:51 8.18910 123.85110 469 ft 89 kts 85°
2026-04-25 12:51 8.18780 123.85734 586 ft 90 kts 110°
2026-04-25 12:51 8.18348 123.86191 711 ft 96 kts 144°
2026-04-25 12:51 8.17714 123.86434 838 ft 100 kts 167°
2026-04-25 12:52 8.17001 123.86420 902 ft 106 kts 186°
2026-04-25 12:52 8.16289 123.86253 1009 ft 104 kts 195°
2026-04-25 12:52 8.15573 123.86073 1050 ft 103 kts 191°
2026-04-25 12:52 8.14884 123.85902 952 ft 105 kts 194°
2026-04-25 12:53 8.14239 123.85628 915 ft 101 kts 218°
2026-04-25 12:53 8.13788 123.85068 809 ft 102 kts 239°
2026-04-25 12:53 8.13419 123.84494 766 ft 96 kts 236°
2026-04-25 12:53 8.13073 123.83938 755 ft 89 kts 254°
2026-04-25 12:54 8.13024 123.83354 776 ft 81 kts 277°
2026-04-25 12:54 8.13162 123.82831 859 ft 76 kts 317°
2026-04-25 12:54 8.13620 123.82515 961 ft 83 kts 339°
2026-04-25 12:54 8.14173 123.82329 1102 ft 83 kts 352°
2026-04-25 12:55 8.14757 123.82307 1072 ft 86 kts 10°
2026-04-25 12:55 8.15154 123.82421 965 ft 96 kts 23°
2026-04-25 12:55 8.15905 123.82874 691 ft 96 kts 35°
2026-04-25 12:55 8.16450 123.83219 543 ft 87 kts 31°
2026-04-25 12:56 8.16965 123.83562 246 ft 90 kts 34°
2026-04-25 12:56 8.17489 123.83910 41 ft 85 kts 32°
2026-04-25 12:56 8.17913 123.84178 26 ft 58 kts 33°
2026-04-25 12:56 8.18169 123.84349 22 ft 32 kts 34°
2026-04-25 12:57 8.18254 123.84426 25 ft 9 kts 118°
2026-04-25 12:57 8.18188 123.84460 25 ft 12 kts 130°
2026-04-25 12:57 8.18167 123.84464 25 ft 3 kts 199°
2026-04-25 12:57 8.18152 123.84441 25 ft 3 kts 278°
2026-04-25 12:58 8.18153 123.84438 25 ft 0 kts 310°